createdAt,value
2017-08-14T00:00:13.986Z,0
2017-08-14T00:01:24.375Z,0
2017-08-14T00:02:34.456Z,0
2017-08-14T00:03:44.164Z,0
2017-08-14T00:04:54.524Z,0
2017-08-14T00:06:04.872Z,0
2017-08-14T00:07:15.231Z,0
2017-08-14T00:08:25.336Z,0
2017-08-14T00:09:35.705Z,0
2017-08-14T00:10:45.729Z,0
2017-08-14T00:11:55.764Z,0
2017-08-14T00:13:05.799Z,0
2017-08-14T00:14:15.889Z,0
2017-08-14T00:15:25.939Z,0
2017-08-14T00:16:36.301Z,0
2017-08-14T00:17:46.327Z,0
2017-08-14T00:18:56.360Z,0
2017-08-14T00:20:06.771Z,0
2017-08-14T00:21:17.144Z,0
2017-08-14T00:22:27.172Z,0
2017-08-14T00:23:37.212Z,0
2017-08-14T00:24:47.554Z,0
2017-08-14T00:25:57.658Z,0
2017-08-14T00:27:08.022Z,0
2017-08-14T00:28:18.386Z,0
2017-08-14T00:29:28.732Z,0
2017-08-14T00:30:38.778Z,0
2017-08-14T00:31:49.182Z,0
2017-08-14T00:32:59.526Z,0
2017-08-14T00:34:09.564Z,0
2017-08-14T00:35:19.607Z,0
2017-08-14T00:36:29.653Z,0
2017-08-14T00:37:40.064Z,0
2017-08-14T00:38:50.413Z,0
2017-08-14T00:40:00.771Z,0
2017-08-14T00:41:11.117Z,0
2017-08-14T00:42:21.462Z,0
2017-08-14T00:43:31.561Z,0
2017-08-14T00:44:41.907Z,0
2017-08-14T00:45:51.938Z,0
2017-08-14T00:47:02.281Z,0
2017-08-14T00:48:12.626Z,0
2017-08-14T00:49:23.006Z,0
2017-08-14T00:50:33.366Z,0
2017-08-14T00:51:43.710Z,0
2017-08-14T00:52:56.228Z,0
2017-08-14T00:54:06.273Z,0
2017-08-14T00:55:16.358Z,0
2017-08-14T00:56:26.694Z,0
2017-08-14T00:57:36.747Z,0
2017-08-14T00:58:47.099Z,0
2017-08-14T00:59:57.431Z,0
2017-08-14T01:01:07.836Z,0
2017-08-14T01:02:17.912Z,0
2017-08-14T01:03:28.254Z,0
2017-08-14T01:04:38.296Z,0
2017-08-14T01:05:48.648Z,0
2017-08-14T01:06:59.033Z,0
2017-08-14T01:08:09.680Z,0
2017-08-14T01:09:19.748Z,0
2017-08-14T01:10:29.786Z,0
2017-08-14T01:11:40.131Z,0
2017-08-14T01:12:50.207Z,0
2017-08-14T01:13:59.935Z,0
2017-08-14T01:15:10.284Z,0
2017-08-14T01:16:20.635Z,0
2017-08-14T01:17:30.975Z,0
2017-08-14T01:18:41.399Z,0
2017-08-14T01:19:51.746Z,0
2017-08-14T01:21:02.117Z,0
2017-08-14T01:22:12.166Z,0
2017-08-14T01:23:22.513Z,0
2017-08-14T01:24:32.906Z,0
2017-08-14T01:25:43.247Z,0
2017-08-14T01:26:53.580Z,0
2017-08-14T01:28:03.935Z,0
2017-08-14T01:29:14.290Z,0
2017-08-14T01:30:24.370Z,0
2017-08-14T01:31:34.709Z,0
2017-08-14T01:32:45.070Z,0
2017-08-14T01:33:55.094Z,0
2017-08-14T01:35:05.436Z,0
2017-08-14T01:36:15.836Z,0
2017-08-14T01:37:26.195Z,0
2017-08-14T01:38:36.532Z,0
2017-08-14T01:39:46.879Z,0
2017-08-14T01:40:56.900Z,0
2017-08-14T01:42:07.291Z,0
2017-08-14T01:43:17.652Z,0
2017-08-14T01:44:27.699Z,0
2017-08-14T01:45:37.753Z,0
2017-08-14T01:46:48.089Z,0
2017-08-14T01:47:57.864Z,0
2017-08-14T01:49:08.202Z,0
2017-08-14T01:50:18.239Z,0
2017-08-14T01:51:28.296Z,0
2017-08-14T01:52:38.334Z,0
2017-08-14T01:53:48.100Z,0
2017-08-14T01:54:57.824Z,0
2017-08-14T01:56:07.866Z,0
2017-08-14T01:57:17.905Z,0
2017-08-14T01:58:28.242Z,0
2017-08-14T01:59:38.628Z,0
2017-08-14T02:00:48.989Z,0
2017-08-14T02:01:59.023Z,0
2017-08-14T02:03:09.386Z,0
2017-08-14T02:04:19.142Z,0
2017-08-14T02:05:29.235Z,0
2017-08-14T02:06:39.291Z,0
2017-08-14T02:07:49.340Z,0
2017-08-14T02:08:59.079Z,0
2017-08-14T02:10:09.108Z,0
2017-08-14T02:11:19.200Z,0
2017-08-14T02:12:30.978Z,0
2017-08-14T02:13:41.015Z,0
2017-08-14T02:14:51.371Z,0
2017-08-14T02:16:01.729Z,0
2017-08-14T02:17:12.116Z,0
2017-08-14T02:18:22.475Z,0
2017-08-14T02:19:32.813Z,0
2017-08-14T02:20:43.162Z,0
2017-08-14T02:21:53.497Z,0
2017-08-14T02:23:03.269Z,0
2017-08-14T02:24:13.634Z,0
2017-08-14T02:25:24.000Z,0
2017-08-14T02:26:34.328Z,0
2017-08-14T02:27:44.411Z,0
2017-08-14T02:28:54.823Z,0
2017-08-14T02:30:05.439Z,0
2017-08-14T02:31:15.465Z,0
2017-08-14T02:32:25.517Z,0
2017-08-14T02:33:35.872Z,0
2017-08-14T02:34:45.959Z,0
2017-08-14T02:35:56.328Z,0
2017-08-14T02:37:06.665Z,0
2017-08-14T02:38:16.711Z,0
2017-08-14T02:39:26.748Z,0
2017-08-14T02:40:37.154Z,0
2017-08-14T02:41:46.872Z,0
2017-08-14T02:42:56.588Z,0
2017-08-14T02:44:06.944Z,0
2017-08-14T02:45:17.308Z,0
2017-08-14T02:46:27.405Z,0
2017-08-14T02:47:37.777Z,0
2017-08-14T02:48:47.824Z,0
2017-08-14T02:49:57.853Z,0
2017-08-14T02:51:07.891Z,0
2017-08-14T02:52:18.288Z,0
2017-08-14T02:53:28.643Z,0
2017-08-14T02:54:38.982Z,0
2017-08-14T02:55:49.024Z,0
2017-08-14T02:56:59.076Z,0
2017-08-14T02:58:09.461Z,0
2017-08-14T02:59:19.814Z,0
2017-08-14T03:00:30.150Z,0
2017-08-14T03:01:40.493Z,0
2017-08-14T03:33:18.771Z,0
2017-08-14T03:34:29.038Z,0
2017-08-14T03:35:38.748Z,0
2017-08-14T03:36:48.785Z,0
2017-08-14T03:37:58.821Z,0
2017-08-14T03:39:09.209Z,0
2017-08-14T03:40:19.547Z,0
2017-08-14T03:41:29.894Z,0
2017-08-14T03:42:39.929Z,0
2017-08-14T03:43:50.260Z,0
2017-08-14T03:45:00.643Z,5
2017-08-14T03:46:10.658Z,5
2017-08-14T03:47:20.996Z,5
2017-08-14T03:48:31.019Z,5
2017-08-14T03:49:41.383Z,5
2017-08-14T03:50:51.790Z,5
2017-08-14T03:52:02.137Z,5
2017-08-14T03:53:11.873Z,10
2017-08-14T03:54:22.212Z,10
2017-08-14T03:55:32.245Z,10
2017-08-14T03:56:42.652Z,10
2017-08-14T03:57:52.988Z,10
2017-08-14T03:59:03.326Z,10
2017-08-14T04:00:13.670Z,15
2017-08-14T04:01:24.002Z,15
2017-08-14T04:02:34.088Z,15
2017-08-14T04:03:44.437Z,15
2017-08-14T04:04:54.495Z,20
2017-08-14T04:06:04.538Z,20
2017-08-14T04:07:13.944Z,20
2017-08-14T04:08:24.025Z,20
2017-08-14T04:09:34.370Z,25
2017-08-14T04:10:44.728Z,25
2017-08-14T04:11:55.080Z,25
2017-08-14T04:13:05.436Z,25
2017-08-14T04:14:15.517Z,30
2017-08-14T04:15:25.889Z,30
2017-08-14T04:16:35.624Z,30
2017-08-14T04:17:45.970Z,30
2017-08-14T04:18:56.315Z,35
2017-08-14T04:20:06.714Z,35
2017-08-14T04:21:17.067Z,40
2017-08-14T04:22:27.101Z,40
2017-08-14T04:23:37.125Z,40
2017-08-14T04:24:47.461Z,40
2017-08-14T04:25:57.231Z,45
2017-08-14T04:27:07.567Z,65
2017-08-14T04:28:17.608Z,90
2017-08-14T04:29:27.964Z,80
2017-08-14T04:30:37.688Z,55
2017-08-14T04:31:48.098Z,50
2017-08-14T04:32:58.446Z,55
2017-08-14T04:34:08.803Z,50
2017-08-14T04:35:19.154Z,55
2017-08-14T04:36:29.500Z,55
2017-08-14T04:37:39.922Z,55
2017-08-14T04:38:50.273Z,90
2017-08-14T04:40:00.316Z,155
2017-08-14T04:41:10.651Z,70
2017-08-14T04:42:21.005Z,70
2017-08-14T04:43:31.085Z,80
2017-08-14T04:44:41.466Z,75
2017-08-14T04:45:51.494Z,65
2017-08-14T04:47:01.520Z,70
2017-08-14T04:48:11.553Z,65
2017-08-14T04:49:21.629Z,70
2017-08-14T04:50:31.970Z,80
2017-08-14T04:51:42.314Z,90
2017-08-14T04:52:52.660Z,135
2017-08-14T04:54:03.030Z,280
2017-08-14T04:55:13.422Z,370
2017-08-14T04:56:23.765Z,350
2017-08-14T04:57:34.102Z,355
2017-08-14T04:58:44.987Z,370
2017-08-14T04:59:55.345Z,380
2017-08-14T05:01:05.433Z,380
2017-08-14T05:02:15.164Z,375
2017-08-14T05:03:25.202Z,380
2017-08-14T05:04:35.553Z,370
2017-08-14T05:05:45.586Z,360
2017-08-14T05:06:55.666Z,385
2017-08-14T05:08:06.038Z,375
2017-08-14T05:09:16.385Z,370
2017-08-14T05:10:26.717Z,375
2017-08-14T05:11:37.074Z,370
2017-08-14T05:12:46.529Z,370
2017-08-14T05:13:56.917Z,360
2017-08-14T05:15:07.270Z,355
2017-08-14T05:16:17.005Z,345
2017-08-14T05:17:27.044Z,340
2017-08-14T05:18:37.122Z,350
2017-08-14T05:19:47.474Z,360
2017-08-14T05:20:57.497Z,360
2017-08-14T05:22:07.858Z,370
2017-08-14T05:23:18.202Z,370
2017-08-14T05:24:28.605Z,365
2017-08-14T05:25:38.641Z,360
2017-08-14T05:26:48.995Z,350
2017-08-14T05:27:59.350Z,350
2017-08-14T05:29:09.713Z,350
2017-08-14T05:30:19.811Z,355
2017-08-14T05:31:29.837Z,355
2017-08-14T05:32:39.885Z,345
2017-08-14T05:33:50.257Z,345
2017-08-14T05:35:00.602Z,345
2017-08-14T05:36:10.686Z,340
2017-08-14T05:37:20.711Z,335
2017-08-14T05:38:31.068Z,330
2017-08-14T05:39:41.427Z,325
2017-08-14T05:40:51.477Z,320
2017-08-14T05:42:01.580Z,315
2017-08-14T05:43:11.615Z,315
2017-08-14T05:44:21.648Z,315
2017-08-14T05:45:31.683Z,320
2017-08-14T05:46:42.028Z,320
2017-08-14T05:47:52.438Z,315
2017-08-14T05:49:02.798Z,315
2017-08-14T05:50:13.150Z,315
2017-08-14T05:51:23.532Z,305
2017-08-14T05:52:33.886Z,305
2017-08-14T05:53:44.281Z,300
2017-08-14T05:54:54.303Z,295
2017-08-14T05:56:04.646Z,265
2017-08-14T05:57:14.997Z,180
2017-08-14T05:58:25.036Z,125
2017-08-14T05:59:35.438Z,120
2017-08-14T06:00:45.799Z,125
2017-08-14T06:01:56.148Z,120
2017-08-14T06:03:06.186Z,125
2017-08-14T06:04:16.534Z,120
2017-08-14T06:05:27.179Z,120
2017-08-14T06:06:37.206Z,120
2017-08-14T06:07:47.562Z,120
2017-08-14T06:08:57.910Z,125
2017-08-14T06:10:07.952Z,120
2017-08-14T06:11:18.034Z,125
2017-08-14T06:12:28.089Z,125
2017-08-14T06:13:38.442Z,125
2017-08-14T06:14:48.495Z,125
2017-08-14T06:15:58.536Z,125
2017-08-14T06:17:08.939Z,125
2017-08-14T06:18:18.962Z,125
2017-08-14T06:19:29.306Z,125
2017-08-14T06:20:39.653Z,125
2017-08-14T06:21:49.986Z,125
2017-08-14T06:23:00.381Z,125
2017-08-14T06:24:10.742Z,130
2017-08-14T06:25:21.095Z,130
2017-08-14T06:26:31.146Z,130
2017-08-14T06:27:42.832Z,125
2017-08-14T06:28:53.229Z,135
2017-08-14T06:30:02.946Z,140
2017-08-14T06:31:12.965Z,145
2017-08-14T06:32:23.006Z,145
2017-08-14T06:33:33.036Z,140
2017-08-14T06:34:43.458Z,140
2017-08-14T06:35:53.811Z,140
2017-08-14T06:37:04.150Z,140
2017-08-14T06:38:14.489Z,145
2017-08-14T06:39:24.833Z,140
2017-08-14T06:40:35.229Z,140
2017-08-14T06:41:45.586Z,135
2017-08-14T06:42:55.635Z,135
2017-08-14T06:44:05.999Z,130
2017-08-14T06:45:16.359Z,130
2017-08-14T06:46:26.444Z,130
2017-08-14T06:47:36.781Z,130
2017-08-14T06:48:47.154Z,130
2017-08-14T06:49:57.511Z,130
2017-08-14T06:51:07.249Z,135
2017-08-14T06:52:17.675Z,135
2017-08-14T06:53:28.041Z,135
2017-08-14T06:54:38.075Z,135
2017-08-14T06:55:48.416Z,135
2017-08-14T06:56:58.137Z,135
2017-08-14T06:58:08.215Z,135
2017-08-14T06:59:17.931Z,135
2017-08-14T07:00:27.976Z,140
2017-08-14T07:01:38.319Z,140
2017-08-14T07:02:48.658Z,140
2017-08-14T07:03:59.047Z,140
2017-08-14T07:05:09.430Z,140
2017-08-14T07:06:19.760Z,140
2017-08-14T07:07:29.799Z,140
2017-08-14T07:08:40.140Z,145
2017-08-14T07:09:50.548Z,140
2017-08-14T07:11:00.912Z,145
2017-08-14T07:12:10.937Z,145
2017-08-14T07:13:21.287Z,145
2017-08-14T07:14:31.665Z,145
2017-08-14T07:15:42.060Z,145
2017-08-14T07:16:52.424Z,145
2017-08-14T07:18:02.779Z,145
2017-08-14T07:19:12.820Z,145
2017-08-14T07:20:22.868Z,150
2017-08-14T07:21:33.277Z,145
2017-08-14T07:22:43.654Z,145
2017-08-14T07:23:53.696Z,150
2017-08-14T07:25:03.724Z,150
2017-08-14T07:26:13.771Z,150
2017-08-14T07:27:24.168Z,150
2017-08-14T07:28:34.525Z,150
2017-08-14T07:29:44.568Z,150
2017-08-14T07:30:54.914Z,150
2017-08-14T07:32:05.269Z,150
2017-08-14T07:33:15.374Z,150
2017-08-14T07:34:25.741Z,150
2017-08-14T07:35:37.058Z,150
2017-08-14T07:36:47.408Z,150
2017-08-14T07:37:57.448Z,155
2017-08-14T07:39:08.096Z,155
2017-08-14T07:40:18.463Z,155
2017-08-14T07:41:28.809Z,155
2017-08-14T07:42:38.840Z,155
2017-08-14T07:43:49.204Z,155
2017-08-14T07:44:59.595Z,155
2017-08-14T07:46:09.944Z,155
2017-08-14T07:47:20.289Z,155
2017-08-14T07:48:30.341Z,155
2017-08-14T07:49:40.404Z,155
2017-08-14T07:50:50.815Z,155
2017-08-14T07:52:01.177Z,155
2017-08-14T07:53:11.513Z,160
2017-08-14T07:54:21.853Z,155
2017-08-14T07:55:31.897Z,160
2017-08-14T07:56:43.145Z,160
2017-08-14T07:57:53.522Z,160
2017-08-14T07:59:03.582Z,160
2017-08-14T08:00:13.957Z,160
2017-08-14T08:01:24.298Z,160
2017-08-14T08:02:34.388Z,160
2017-08-14T08:03:44.439Z,160
2017-08-14T08:04:54.496Z,160
2017-08-14T08:06:04.855Z,160
2017-08-14T08:07:14.911Z,160
2017-08-14T08:08:26.681Z,160
2017-08-14T08:09:37.061Z,160
2017-08-14T08:10:47.414Z,165
2017-08-14T08:11:57.433Z,165
2017-08-14T08:13:07.821Z,160
2017-08-14T08:14:18.224Z,160
2017-08-14T08:15:28.598Z,165
2017-08-14T08:16:38.938Z,165
2017-08-14T08:17:48.964Z,165
2017-08-14T08:18:59.351Z,165
2017-08-14T08:20:09.452Z,165
2017-08-14T08:21:19.802Z,165
2017-08-14T08:22:30.156Z,165
2017-08-14T08:23:40.499Z,165
2017-08-14T08:24:50.562Z,165
2017-08-14T08:26:03.782Z,165
2017-08-14T08:27:14.140Z,165
2017-08-14T08:28:24.483Z,165
2017-08-14T08:29:34.835Z,165
2017-08-14T08:30:46.712Z,165
2017-08-14T08:31:57.132Z,165
2017-08-14T08:33:07.487Z,165
2017-08-14T08:34:17.892Z,165
2017-08-14T08:35:27.931Z,170
2017-08-14T08:36:38.299Z,170
2017-08-14T08:37:48.753Z,165
2017-08-14T08:38:59.123Z,165
2017-08-14T08:40:09.489Z,165
2017-08-14T08:41:20.740Z,170
2017-08-14T08:42:31.110Z,170
2017-08-14T08:43:41.414Z,170
2017-08-14T08:44:51.792Z,170
2017-08-14T08:46:02.376Z,170
2017-08-14T08:47:12.850Z,170
2017-08-14T08:48:23.222Z,170
2017-08-14T08:49:33.627Z,170
2017-08-14T08:50:43.676Z,170
2017-08-14T08:51:53.765Z,170
2017-08-14T08:53:04.148Z,170
2017-08-14T08:54:14.577Z,170
2017-08-14T08:55:25.008Z,175
2017-08-14T08:56:35.386Z,175
2017-08-14T08:57:45.446Z,175
2017-08-14T08:58:55.857Z,175
2017-08-14T09:00:06.278Z,175
2017-08-14T09:01:16.765Z,175
2017-08-14T09:02:27.641Z,175
2017-08-14T09:03:37.413Z,175
2017-08-14T09:04:47.854Z,175
2017-08-14T09:05:57.976Z,175
2017-08-14T09:07:08.114Z,175
2017-08-14T09:08:18.502Z,175
2017-08-14T09:09:28.880Z,185
2017-08-14T09:10:38.929Z,180
2017-08-14T09:11:49.331Z,180
2017-08-14T09:12:59.763Z,180
2017-08-14T09:14:10.052Z,180
2017-08-14T09:15:20.459Z,180
2017-08-14T09:16:30.887Z,180
2017-08-14T09:17:40.975Z,180
2017-08-14T09:18:51.079Z,180
2017-08-14T09:20:01.465Z,185
2017-08-14T09:21:12.117Z,185
2017-08-14T09:22:22.492Z,185
2017-08-14T09:23:32.882Z,185
2017-08-14T09:24:43.307Z,185
2017-08-14T09:25:53.387Z,185
2017-08-14T09:27:03.767Z,190
2017-08-14T09:28:14.174Z,190
2017-08-14T09:29:24.568Z,190
2017-08-14T09:30:35.004Z,190
2017-08-14T09:31:45.398Z,185
2017-08-14T09:32:55.778Z,190
2017-08-14T09:34:06.149Z,190
2017-08-14T09:35:16.206Z,190
2017-08-14T09:36:26.624Z,190
2017-08-14T09:37:37.005Z,190
2017-08-14T09:38:47.385Z,190
2017-08-14T09:39:57.753Z,190
2017-08-14T09:41:07.843Z,195
2017-08-14T09:42:18.298Z,195
2017-08-14T09:43:28.679Z,195
2017-08-14T09:44:39.060Z,195
2017-08-14T09:45:49.450Z,190
2017-08-14T09:46:59.812Z,190
2017-08-14T09:48:10.237Z,195
2017-08-14T09:49:20.612Z,200
2017-08-14T09:50:30.979Z,200
2017-08-14T09:51:41.358Z,200
2017-08-14T09:52:51.724Z,205
2017-08-14T09:54:02.139Z,210
2017-08-14T09:55:12.534Z,220
2017-08-14T09:56:22.934Z,225
2017-08-14T09:57:33.298Z,225
2017-08-14T09:58:43.380Z,230
2017-08-14T09:59:53.834Z,235
2017-08-14T10:01:04.210Z,240
2017-08-14T10:02:14.263Z,245
2017-08-14T10:03:24.316Z,245
2017-08-14T10:04:34.044Z,245
2017-08-14T10:05:44.455Z,250
2017-08-14T10:06:54.816Z,245
2017-08-14T10:08:04.896Z,245
2017-08-14T10:09:14.644Z,245
2017-08-14T10:10:25.022Z,235
2017-08-14T10:11:35.136Z,235
2017-08-14T10:12:45.228Z,235
2017-08-14T10:13:55.592Z,230
2017-08-14T10:15:05.956Z,230
2017-08-14T10:16:16.328Z,230
2017-08-14T10:17:26.741Z,215
2017-08-14T10:18:37.137Z,195
2017-08-14T10:19:47.692Z,145
2017-08-14T10:20:58.053Z,140
2017-08-14T10:22:08.414Z,145
2017-08-14T10:23:18.817Z,145
2017-08-14T10:24:29.205Z,145
2017-08-14T10:25:39.570Z,180
2017-08-14T10:26:49.952Z,255
2017-08-14T10:28:00.313Z,260
2017-08-14T10:29:10.409Z,260
2017-08-14T10:30:21.633Z,260
2017-08-14T10:31:32.008Z,260
2017-08-14T10:32:42.051Z,265
2017-08-14T10:33:52.410Z,270
2017-08-14T10:35:02.520Z,280
2017-08-14T10:36:12.927Z,275
2017-08-14T10:37:23.294Z,265
2017-08-14T10:38:33.044Z,260
2017-08-14T10:39:45.527Z,255
2017-08-14T10:40:55.957Z,250
2017-08-14T10:42:06.008Z,250
2017-08-14T10:43:16.388Z,250
2017-08-14T10:44:26.463Z,245
2017-08-14T10:45:36.200Z,240
2017-08-14T10:46:46.303Z,245
2017-08-14T10:47:56.668Z,245
2017-08-14T10:49:09.287Z,245
2017-08-14T10:50:19.339Z,245
2017-08-14T10:51:29.702Z,245
2017-08-14T10:52:40.111Z,245
2017-08-14T10:53:50.477Z,240
2017-08-14T10:55:00.513Z,240
2017-08-14T10:56:10.565Z,240
2017-08-14T10:57:20.925Z,240
2017-08-14T10:58:31.027Z,240
2017-08-14T10:59:41.400Z,245
2017-08-14T11:00:51.762Z,245
2017-08-14T11:02:02.151Z,240
2017-08-14T11:03:12.507Z,235
2017-08-14T11:04:22.915Z,235
2017-08-14T11:05:32.982Z,230
2017-08-14T11:06:43.332Z,225
2017-08-14T11:07:53.677Z,230
2017-08-14T11:09:04.024Z,225
2017-08-14T11:10:14.112Z,225
2017-08-14T11:11:24.494Z,225
2017-08-14T11:12:34.859Z,230
2017-08-14T11:13:45.403Z,230
2017-08-14T11:14:55.777Z,235
2017-08-14T11:16:08.098Z,240
2017-08-14T11:17:18.472Z,240
2017-08-14T11:18:28.833Z,245
2017-08-14T11:19:39.226Z,245
2017-08-14T11:20:49.298Z,245
2017-08-14T11:22:01.110Z,245
2017-08-14T11:23:11.494Z,245
2017-08-14T11:24:21.848Z,245
2017-08-14T11:25:32.209Z,250
2017-08-14T11:26:42.569Z,250
2017-08-14T11:27:52.989Z,250
2017-08-14T11:29:03.044Z,250
2017-08-14T11:30:13.397Z,255
2017-08-14T11:31:23.129Z,250
2017-08-14T11:32:33.493Z,250
2017-08-14T11:33:43.896Z,250
2017-08-14T11:34:55.222Z,255
2017-08-14T11:36:05.331Z,255
2017-08-14T11:37:15.702Z,255
2017-08-14T11:38:26.078Z,255
2017-08-14T11:39:36.513Z,255
2017-08-14T11:40:46.893Z,255
2017-08-14T11:41:59.146Z,255
2017-08-14T11:43:09.511Z,250
2017-08-14T11:44:21.541Z,250
2017-08-14T11:45:32.001Z,250
2017-08-14T11:46:42.399Z,250
2017-08-14T11:47:52.439Z,250
2017-08-14T11:49:02.496Z,245
2017-08-14T11:50:12.894Z,245
2017-08-14T11:51:23.318Z,245
2017-08-14T11:52:33.672Z,245
2017-08-14T11:53:44.039Z,245
2017-08-14T11:54:54.398Z,245
2017-08-14T11:56:04.780Z,245
2017-08-14T11:57:15.199Z,240
2017-08-14T11:58:26.724Z,195
2017-08-14T11:59:36.786Z,175
2017-08-14T12:00:47.877Z,115
2017-08-14T12:01:58.248Z,110
2017-08-14T12:03:08.717Z,110
2017-08-14T12:04:19.298Z,110
2017-08-14T12:05:29.660Z,110
2017-08-14T12:06:40.078Z,110
2017-08-14T12:07:50.457Z,110
2017-08-14T12:09:00.887Z,110
2017-08-14T12:10:11.260Z,115
2017-08-14T12:11:21.617Z,120
2017-08-14T12:12:31.991Z,130
2017-08-14T12:13:42.368Z,155
2017-08-14T12:14:52.488Z,130
2017-08-14T12:16:02.579Z,130
2017-08-14T12:17:12.971Z,160
2017-08-14T12:18:23.333Z,140
2017-08-14T12:19:36.040Z,175
2017-08-14T12:20:46.473Z,225
2017-08-14T12:21:56.554Z,260
2017-08-14T12:23:06.619Z,140
2017-08-14T12:24:16.977Z,145
2017-08-14T12:25:27.048Z,145
2017-08-14T12:26:37.492Z,145
2017-08-14T12:27:47.864Z,145
2017-08-14T12:28:57.920Z,155
2017-08-14T12:30:10.292Z,170
2017-08-14T12:31:22.663Z,285
2017-08-14T12:32:32.455Z,280
2017-08-14T12:33:42.818Z,295
2017-08-14T12:34:52.866Z,290
2017-08-14T12:36:03.236Z,280
2017-08-14T12:37:13.632Z,280
2017-08-14T12:38:24.023Z,160
2017-08-14T12:39:34.407Z,280
2017-08-14T12:40:44.793Z,280
2017-08-14T12:41:55.192Z,275
2017-08-14T12:43:05.615Z,280
2017-08-14T12:44:15.650Z,280
2017-08-14T12:45:26.018Z,275
2017-08-14T12:46:36.067Z,275
2017-08-14T12:47:46.448Z,275
2017-08-14T12:48:56.866Z,270
2017-08-14T12:50:06.939Z,275
2017-08-14T12:51:17.311Z,275
2017-08-14T12:52:29.155Z,285
2017-08-14T12:53:39.531Z,295
2017-08-14T12:54:49.929Z,295
2017-08-14T12:56:00.273Z,295
2017-08-14T12:57:10.039Z,290
2017-08-14T12:58:20.098Z,285
2017-08-14T12:59:30.138Z,280
2017-08-14T13:00:40.574Z,275
2017-08-14T13:01:50.305Z,275
2017-08-14T13:03:00.697Z,275
2017-08-14T13:04:11.043Z,270
2017-08-14T13:05:21.098Z,270
2017-08-14T13:06:31.528Z,265
2017-08-14T13:07:41.597Z,260
2017-08-14T13:08:51.971Z,255
2017-08-14T13:10:02.023Z,185
2017-08-14T13:11:12.382Z,150
2017-08-14T13:12:22.802Z,175
2017-08-14T13:13:33.173Z,135
2017-08-14T13:14:43.218Z,135
2017-08-14T13:15:53.583Z,135
2017-08-14T13:17:03.640Z,135
2017-08-14T13:18:14.034Z,170
2017-08-14T13:19:24.085Z,195
2017-08-14T13:20:34.181Z,235
2017-08-14T13:21:44.272Z,220
2017-08-14T13:22:54.336Z,215
2017-08-14T13:24:04.694Z,205
2017-08-14T13:25:14.750Z,210
2017-08-14T13:26:27.664Z,130
2017-08-14T13:27:38.054Z,130
2017-08-14T13:28:49.990Z,135
2017-08-14T13:30:00.396Z,200
2017-08-14T13:31:10.749Z,135
2017-08-14T13:32:21.164Z,215
2017-08-14T13:33:31.529Z,240
2017-08-14T13:34:41.247Z,235
2017-08-14T13:35:51.625Z,240
2017-08-14T13:37:01.995Z,240
2017-08-14T13:38:12.417Z,245
2017-08-14T13:39:22.782Z,245
2017-08-14T13:40:33.162Z,245
2017-08-14T13:41:44.273Z,240
2017-08-14T13:42:54.646Z,240
2017-08-14T13:44:06.679Z,240
2017-08-14T13:45:16.747Z,245
2017-08-14T13:46:26.805Z,245
2017-08-14T13:47:38.628Z,245
2017-08-14T13:48:56.350Z,240
2017-08-14T13:50:06.722Z,240
2017-08-14T13:51:16.766Z,240
2017-08-14T13:52:27.158Z,240
2017-08-14T13:53:37.527Z,240
2017-08-14T13:54:47.651Z,240
2017-08-14T13:55:58.029Z,225
2017-08-14T13:57:10.429Z,235
2017-08-14T13:58:20.462Z,230
2017-08-14T13:59:30.847Z,230
2017-08-14T14:00:41.284Z,230
2017-08-14T14:01:51.666Z,230
2017-08-14T14:03:01.732Z,230
2017-08-14T14:04:12.121Z,230
2017-08-14T14:05:22.493Z,235
2017-08-14T14:06:32.932Z,230
2017-08-14T14:07:43.329Z,230
2017-08-14T14:08:53.690Z,230
2017-08-14T14:10:04.076Z,225
2017-08-14T14:11:14.450Z,225
2017-08-14T14:12:26.823Z,225
2017-08-14T14:13:37.196Z,225
2017-08-14T14:14:47.559Z,225
2017-08-14T14:15:57.936Z,225
2017-08-14T14:17:07.673Z,220
2017-08-14T14:18:18.102Z,215
2017-08-14T14:19:28.468Z,215
2017-08-14T14:20:38.832Z,210
2017-08-14T14:21:48.894Z,210
2017-08-14T14:22:59.254Z,210
2017-08-14T14:24:09.712Z,210
2017-08-14T14:25:20.076Z,205
2017-08-14T14:26:30.445Z,195
2017-08-14T14:27:40.804Z,200
2017-08-14T14:28:51.161Z,205
2017-08-14T14:30:01.602Z,205
2017-08-14T14:31:11.962Z,205
2017-08-14T14:32:22.344Z,200
2017-08-14T14:33:32.381Z,195
2017-08-14T14:34:42.983Z,190
2017-08-14T14:35:53.398Z,200
2017-08-14T14:37:03.753Z,200
2017-08-14T14:38:13.814Z,200
2017-08-14T14:39:23.845Z,200
2017-08-14T14:40:34.225Z,200
2017-08-14T14:41:44.328Z,200
2017-08-14T14:42:59.422Z,200
2017-08-14T14:44:09.807Z,195
2017-08-14T14:45:19.856Z,190
2017-08-14T14:46:30.238Z,190
2017-08-14T14:47:40.669Z,195
2017-08-14T14:48:51.040Z,185
2017-08-14T14:50:02.156Z,190
2017-08-14T14:51:12.199Z,190
2017-08-14T14:52:22.556Z,190
2017-08-14T14:53:32.666Z,190
2017-08-14T14:54:42.712Z,190
2017-08-14T14:55:52.461Z,190
2017-08-14T14:57:02.867Z,195
2017-08-14T14:58:13.231Z,195
2017-08-14T14:59:23.656Z,190
2017-08-14T15:00:34.014Z,185
2017-08-14T15:01:44.403Z,175
2017-08-14T15:02:54.767Z,175
2017-08-14T15:04:05.173Z,180
2017-08-14T15:05:15.601Z,180
2017-08-14T15:06:25.972Z,180
2017-08-14T15:07:36.017Z,175
2017-08-14T15:08:46.388Z,175
2017-08-14T15:09:56.750Z,160
2017-08-14T15:11:06.222Z,165
2017-08-14T15:12:16.602Z,165
2017-08-14T15:13:26.978Z,155
2017-08-14T15:14:37.347Z,130
2017-08-14T15:15:47.703Z,120
2017-08-14T15:16:58.118Z,115
2017-08-14T15:18:08.481Z,135
2017-08-14T15:19:18.531Z,165
2017-08-14T15:20:28.890Z,120
2017-08-14T15:21:39.968Z,110
2017-08-14T15:22:50.383Z,120
2017-08-14T15:24:00.435Z,160
2017-08-14T15:25:10.482Z,160
2017-08-14T15:26:20.862Z,160
2017-08-14T15:27:31.226Z,155
2017-08-14T15:28:41.643Z,150
2017-08-14T15:29:51.376Z,150
2017-08-14T15:31:01.753Z,150
2017-08-14T15:32:11.464Z,150
2017-08-14T15:33:21.852Z,150
2017-08-14T15:34:31.677Z,150
2017-08-14T15:35:41.722Z,145
2017-08-14T15:36:51.784Z,130
2017-08-14T15:38:02.167Z,125
2017-08-14T15:39:12.550Z,135
2017-08-14T15:40:22.658Z,145
2017-08-14T15:41:33.608Z,145
2017-08-14T15:42:43.671Z,145
2017-08-14T15:43:54.047Z,145
2017-08-14T15:45:04.119Z,145
2017-08-14T15:46:14.227Z,135
2017-08-14T15:47:24.622Z,130
2017-08-14T15:48:34.751Z,130
2017-08-14T15:49:44.496Z,130
2017-08-14T15:50:54.874Z,125
2017-08-14T15:52:05.648Z,125
2017-08-14T15:53:16.026Z,125
2017-08-14T15:54:26.082Z,125
2017-08-14T15:55:36.478Z,125
2017-08-14T15:56:49.820Z,130
2017-08-14T15:58:00.232Z,130
2017-08-14T15:59:10.272Z,130
2017-08-14T16:00:20.650Z,130
2017-08-14T16:01:31.030Z,130
2017-08-14T16:02:41.403Z,130
2017-08-14T16:03:51.810Z,125
2017-08-14T16:05:04.714Z,125
2017-08-14T16:06:15.084Z,130
2017-08-14T16:07:25.472Z,120
2017-08-14T16:08:35.818Z,120
2017-08-14T16:09:46.244Z,120
2017-08-14T16:10:56.301Z,120
2017-08-14T16:12:09.281Z,120
2017-08-14T16:13:19.654Z,120
2017-08-14T16:14:30.112Z,120
2017-08-14T16:15:40.209Z,120
2017-08-14T16:16:51.840Z,120
2017-08-14T16:18:01.883Z,115
2017-08-14T16:19:11.628Z,115
2017-08-14T16:20:21.998Z,115
2017-08-14T16:21:32.396Z,115
2017-08-14T16:22:42.801Z,110
2017-08-14T16:23:56.281Z,110
2017-08-14T16:25:06.645Z,110
2017-08-14T16:26:21.844Z,110
2017-08-14T16:27:31.882Z,110
2017-08-14T16:28:42.239Z,105
2017-08-14T16:29:52.641Z,105
2017-08-14T16:31:02.690Z,105
2017-08-14T16:32:13.122Z,100
2017-08-14T16:33:24.241Z,100
2017-08-14T16:34:34.009Z,100
2017-08-14T16:35:44.371Z,95
2017-08-14T16:36:54.756Z,95
2017-08-14T16:38:05.201Z,90
2017-08-14T16:39:15.249Z,90
2017-08-14T16:40:25.609Z,90
2017-08-14T16:41:35.667Z,90
2017-08-14T16:42:45.734Z,90
2017-08-14T16:43:56.131Z,90
2017-08-14T16:45:06.508Z,80
2017-08-14T16:46:19.536Z,85
2017-08-14T16:47:31.647Z,85
2017-08-14T16:48:42.013Z,85
2017-08-14T16:49:52.141Z,85
2017-08-14T16:51:02.519Z,85
2017-08-14T16:52:12.868Z,85
2017-08-14T16:53:23.221Z,80
2017-08-14T16:54:33.264Z,80
2017-08-14T16:55:43.372Z,80